Ulladulla, New South Wales

5:28 PM AEST on September 04, 2015 (GMT +1000)
Kings Point Industrial | | Change Station
CLOSE
Current Station
Personal Weather Station
Location: Ulladulla, NEW SOUTH WALES
Elevation: 85 ft
Nearby Weather Stations

Elev 85 ft 35.37 °S, 150.46 °E | Updated 8 minutes ago

Mostly Cloudy
Mostly Cloudy
61.2 °F
Feels Like 61.2 °F
N
9.4
Wind Variable Wind from SE

Today
High -- | Low -- °F
--% Chance of Precip.
Yesterday
High -- | Low -- °F
Precip. -- in
6:14 AM 5:40 PM
Waning Gibbous, 62% visible
Pressure 30.12 in
Visibility 6.2 miles
Clouds Mostly Cloudy 3300 ft
Dew Point 48 °F
Humidity 62%
Rainfall 0.00 in
Snow Depth Not available.
UV 0 out of 12
Pollen Not available.
Air Quality Not available.
Flu Activity Not available.
METAR YSNW 040700Z AUTO 16005KT 9999 // BKN033 14/08 Q1020
Pressure 30.12 in
Visibility 6.2 miles
Clouds Mostly Cloudy 3300 ft
Dew Point 48 °F
Humidity 62%
Rainfall 0.00 in
Snow Depth Not available.
UV 0 out of 12
Pollen Not available.
Air Quality Not available.
Flu Activity Not available.
METAR YSNW 040700Z AUTO 16005KT 9999 // BKN033 14/08 Q1020

10-Day Weather Forecast

×

Almanac

Astronomy

Sep. 04, 2015 Rise Set
Actual Time
Civil Twilight
Nautical Twilight
Astronomical Twilight
Moon
Length of Visible Light
Length of Day
Tomorrow will be .
, % of the Moon is Illuminated

Today's Extremes

Country Highs Country Lows

Community

WunderPhotos

Upload Photos

1,852,132 photos uploaded!

WunderBlogs® & News

Nearby

Air Quality

  Air Quality AQ Index Pollutant
Not available.

Snow Depth

Station Depth Elevation

Earthquake Activity

City Distance Mag. Time & Date
Minimum magnitude displayed is 2.5.

Coastal Water Temperatures

Place Temperature

Stations

Nearby Weather Stations

Station Location Temp. Windchill Dew Point Humidity Wind Precip. Elev Updated Type